Aérodrome :
LOGIN :

S'inscrire | Disclaimer

   EN    FR    IT 

 










Légende :    VFR   VFR Marginal   IFR   IFR Intensif   IFR Très Intensif
Visi : 
Plafond : 
>= 8 km
>= 3000ft
5 à 8 km
1000 à 3000 ft
1500m à 5 km
500 à 1000 ft
800 à 1500m
200 à 500 ft
< 800m
< 200 ft
Symboles :   Orages  Brouillard  Fortes neiges  Fortes précipitations  Vent > 20 kt
SIGMETs :   Divers  Orages  Givrage  Turbulence  Onde Orograph.  Cendres Volcan.






- Altitude de l'aérodrome : 44 ft
- Code IATA : SOU


EGHI - Southampton

DERNIER METAR :
  • 280720Z 36009KT 320V040 9999 SCT025 13/06 Q1026

METARs EXPIRÉS :
  • 280650Z 36010KT 9999 FEW024 12/06 Q1026
  • 280620Z 36009KT CAVOK 12/06 Q1026
  • 280550Z 36005KT 310V020 CAVOK 11/07 Q1027
  • 280520Z 34003KT CAVOK 10/06 Q1027
  • 280450Z 36004KT 330V040 CAVOK 08/06 Q1027

TAF TAF EGHI
Valide du 28 à 06h jusqu'au 28 à 15h UTC


280523Z 2806/2815 36006KT CAVOK
ATIS : +44 23 8062 7103



MET'MAP, la Météo Aéronautique d'un coup d'oeil ! - Copyright ORBIFLY Décembre 2007 - Disclaimer

ORBIFLY MET'MAP TEAM :

Programmation & Développement : Alexandra Zaïnal
Sur une idée originale de : Baudouin d'Aumeries
Soutien technique & logistique : Manuel Goepfert
Assistance : Marc-Olivier Méhu

Contact : metmap@orbifly.com




SOURCES & CREDITS :

   NOAA